Terminal Aerodrome Forecast
Issued by NWS Sioux Falls, SD

Home | Current Version | Previous Version | Graphics & Text | Print | Product List | Glossary On
Versions: 1 2 3 4 5 6 7 8 9 10 11 12 13 14 15
000
FTUS43 KFSD 162333
TAFFSD
TAF
KFSD 162333Z 1700/1724 32010KT P6SM -SHRA BKN009 OVC025
     FM170300 31011KT P6SM VCSH OVC012
     FM170800 30012KT 6SM BR OVC008
     FM171300 31012KT P6SM SCT015
     FM172200 32011KT P6SM SKC=

USA.gov is the U.S. government's official web portal to all federal, state and local government web resources and services.